sensor_id;sensor_type;location;lat;lon;timestamp;pressure;altitude;pressure_sealevel;temperature;humidity
40730;BME280;26418;50.070;8.436;2022-09-13T00:01:03;99581.81;;;16.22;71.41
40730;BME280;26418;50.070;8.436;2022-09-13T00:03:29;99590.34;;;16.20;71.55
40730;BME280;26418;50.070;8.436;2022-09-13T00:05:54;99583.56;;;16.14;71.59
40730;BME280;26418;50.070;8.436;2022-09-13T00:08:20;99578.31;;;16.09;71.86
40730;BME280;26418;50.070;8.436;2022-09-13T00:10:45;99579.47;;;16.08;72.18
40730;BME280;26418;50.070;8.436;2022-09-13T00:13:13;99580.53;;;16.03;72.49
40730;BME280;26418;50.070;8.436;2022-09-13T00:15:43;99581.19;;;16.00;72.47
40730;BME280;26418;50.070;8.436;2022-09-13T00:18:09;99570.19;;;15.96;72.89
40730;BME280;26418;50.070;8.436;2022-09-13T00:20:34;99556.25;;;15.85;72.76
40730;BME280;26418;50.070;8.436;2022-09-13T00:23:00;99552.03;;;15.88;72.91
40730;BME280;26418;50.070;8.436;2022-09-13T00:25:25;99556.34;;;15.89;72.78
40730;BME280;26418;50.070;8.436;2022-09-13T00:27:50;99544.53;;;15.85;73.13
40730;BME280;26418;50.070;8.436;2022-09-13T00:30:16;99546.00;;;15.82;72.90
40730;BME280;26418;50.070;8.436;2022-09-13T00:32:41;99550.34;;;15.83;73.07
40730;BME280;26418;50.070;8.436;2022-09-13T00:35:07;99552.38;;;15.86;73.17
40730;BME280;26418;50.070;8.436;2022-09-13T00:37:33;99545.22;;;15.82;73.33
40730;BME280;26418;50.070;8.436;2022-09-13T00:39:59;99540.69;;;15.74;73.58
40730;BME280;26418;50.070;8.436;2022-09-13T00:42:26;99554.75;;;15.76;73.79
40730;BME280;26418;50.070;8.436;2022-09-13T00:44:57;99542.25;;;15.75;73.82
40730;BME280;26418;50.070;8.436;2022-09-13T00:47:32;99535.00;;;15.66;73.86
40730;BME280;26418;50.070;8.436;2022-09-13T00:50:19;99542.03;;;15.67;73.81
40730;BME280;26418;50.070;8.436;2022-09-13T00:52:48;99532.63;;;15.65;73.96
40730;BME280;26418;50.070;8.436;2022-09-13T00:55:20;99528.56;;;15.59;74.02
40730;BME280;26418;50.070;8.436;2022-09-13T00:57:46;99517.19;;;15.56;74.08
40730;BME280;26418;50.070;8.436;2022-09-13T01:00:17;99514.91;;;15.59;73.77
40730;BME280;26418;50.070;8.436;2022-09-13T01:02:50;99510.84;;;15.52;74.14
40730;BME280;26418;50.070;8.436;2022-09-13T01:05:20;99505.84;;;15.54;74.04
40730;BME280;26418;50.070;8.436;2022-09-13T01:07:46;99518.78;;;15.57;74.17
40730;BME280;26418;50.070;8.436;2022-09-13T01:10:12;99527.31;;;15.56;74.06
40730;BME280;26418;50.070;8.436;2022-09-13T01:15:22;99543.88;;;15.51;74.66
40730;BME280;26418;50.070;8.436;2022-09-13T01:17:48;99544.59;;;15.48;74.69
40730;BME280;26418;50.070;8.436;2022-09-13T01:20:14;99550.72;;;15.45;74.87
40730;BME280;26418;50.070;8.436;2022-09-13T01:36:57;99508.03;;;15.24;76.11
40730;BME280;26418;50.070;8.436;2022-09-13T01:42:21;99491.72;;;15.12;76.36
40730;BME280;26418;50.070;8.436;2022-09-13T01:47:42;99496.34;;;15.23;76.04
40730;BME280;26418;50.070;8.436;2022-09-13T01:50:28;99487.41;;;15.23;75.85
40730;BME280;26418;50.070;8.436;2022-09-13T01:53:01;99497.03;;;15.20;76.10
40730;BME280;26418;50.070;8.436;2022-09-13T01:55:39;99515.31;;;15.20;75.99
40730;BME280;26418;50.070;8.436;2022-09-13T01:58:19;99527.56;;;15.14;76.26
40730;BME280;26418;50.070;8.436;2022-09-13T02:00:52;99526.19;;;15.07;76.44
40730;BME280;26418;50.070;8.436;2022-09-13T02:03:31;99531.09;;;15.02;76.81
40730;BME280;26418;50.070;8.436;2022-09-13T02:06:02;99542.00;;;15.02;76.98
40730;BME280;26418;50.070;8.436;2022-09-13T02:08:53;99544.59;;;14.98;77.10
40730;BME280;26418;50.070;8.436;2022-09-13T02:11:20;99536.75;;;14.97;77.36
40730;BME280;26418;50.070;8.436;2022-09-13T02:13:59;99538.56;;;14.92;77.60
40730;BME280;26418;50.070;8.436;2022-09-13T02:16:33;99555.81;;;14.97;77.50
40730;BME280;26418;50.070;8.436;2022-09-13T02:19:06;99549.47;;;14.92;77.28
40730;BME280;26418;50.070;8.436;2022-09-13T02:21:37;99552.38;;;14.87;77.76
40730;BME280;26418;50.070;8.436;2022-09-13T02:24:11;99542.78;;;14.90;78.03
40730;BME280;26418;50.070;8.436;2022-09-13T02:26:38;99534.94;;;14.88;78.32
40730;BME280;26418;50.070;8.436;2022-09-13T02:29:10;99548.88;;;14.87;78.25
40730;BME280;26418;50.070;8.436;2022-09-13T02:31:41;99550.00;;;14.86;78.33
40730;BME280;26418;50.070;8.436;2022-09-13T02:34:21;99541.50;;;14.87;78.58
40730;BME280;26418;50.070;8.436;2022-09-13T02:36:48;99535.81;;;14.80;78.55
40730;BME280;26418;50.070;8.436;2022-09-13T02:39:17;99546.84;;;14.84;78.50
40730;BME280;26418;50.070;8.436;2022-09-13T02:41:55;99545.81;;;14.88;78.52
40730;BME280;26418;50.070;8.436;2022-09-13T02:57:34;99538.91;;;15.03;78.43
40730;BME280;26418;50.070;8.436;2022-09-13T03:00:00;99539.59;;;15.00;78.34
40730;BME280;26418;50.070;8.436;2022-09-13T03:02:31;99535.06;;;15.04;78.31
40730;BME280;26418;50.070;8.436;2022-09-13T03:04:58;99533.59;;;15.07;78.23
40730;BME280;26418;50.070;8.436;2022-09-13T03:07:25;99535.19;;;15.08;78.14
40730;BME280;26418;50.070;8.436;2022-09-13T03:09:57;99512.03;;;15.02;78.44
40730;BME280;26418;50.070;8.436;2022-09-13T03:15:29;99525.97;;;15.25;78.03
40730;BME280;26418;50.070;8.436;2022-09-13T03:20:42;99523.94;;;15.22;78.04
40730;BME280;26418;50.070;8.436;2022-09-13T03:23:11;99513.81;;;15.22;77.69
40730;BME280;26418;50.070;8.436;2022-09-13T03:26:07;99516.09;;;15.20;77.96
40730;BME280;26418;50.070;8.436;2022-09-13T03:31:17;99502.94;;;15.22;78.30
40730;BME280;26418;50.070;8.436;2022-09-13T03:33:50;99506.91;;;15.25;78.33
40730;BME280;26418;50.070;8.436;2022-09-13T03:36:27;99494.66;;;15.19;78.24
40730;BME280;26418;50.070;8.436;2022-09-13T03:39:11;99494.44;;;15.12;78.44
40730;BME280;26418;50.070;8.436;2022-09-13T03:41:46;99500.78;;;15.16;78.51
40730;BME280;26418;50.070;8.436;2022-09-13T03:44:18;99507.38;;;15.15;78.62
40730;BME280;26418;50.070;8.436;2022-09-13T03:46:47;99510.78;;;15.12;78.70
40730;BME280;26418;50.070;8.436;2022-09-13T03:49:14;99497.81;;;15.08;78.61
40730;BME280;26418;50.070;8.436;2022-09-13T03:51:43;99496.22;;;15.07;78.98
40730;BME280;26418;50.070;8.436;2022-09-13T03:54:14;99484.44;;;15.03;79.05
40730;BME280;26418;50.070;8.436;2022-09-13T03:56:40;99484.44;;;15.03;79.00
40730;BME280;26418;50.070;8.436;2022-09-13T03:59:06;99488.88;;;15.08;78.90
40730;BME280;26418;50.070;8.436;2022-09-13T04:01:31;99479.25;;;14.98;78.66
40730;BME280;26418;50.070;8.436;2022-09-13T04:03:57;99485.59;;;15.02;78.93
40730;BME280;26418;50.070;8.436;2022-09-13T04:06:23;99483.63;;;15.03;78.75
40730;BME280;26418;50.070;8.436;2022-09-13T04:08:48;99467.19;;;14.99;78.95
40730;BME280;26418;50.070;8.436;2022-09-13T04:11:14;99474.47;;;14.95;79.18
40730;BME280;26418;50.070;8.436;2022-09-13T04:13:39;99474.22;;;15.00;79.19
40730;BME280;26418;50.070;8.436;2022-09-13T04:16:05;99480.91;;;15.03;79.28
40730;BME280;26418;50.070;8.436;2022-09-13T04:18:31;99468.78;;;15.00;79.22
40730;BME280;26418;50.070;8.436;2022-09-13T04:20:58;99482.19;;;15.05;79.33
40730;BME280;26418;50.070;8.436;2022-09-13T04:23:25;99486.03;;;15.04;79.23
40730;BME280;26418;50.070;8.436;2022-09-13T04:25:51;99472.63;;;14.99;79.24
40730;BME280;26418;50.070;8.436;2022-09-13T04:28:18;99486.03;;;15.04;79.27
40730;BME280;26418;50.070;8.436;2022-09-13T04:30:45;99483.53;;;14.99;79.21
40730;BME280;26418;50.070;8.436;2022-09-13T04:33:10;99499.09;;;14.99;79.01
40730;BME280;26418;50.070;8.436;2022-09-13T04:35:36;99504.66;;;15.02;79.20
40730;BME280;26418;50.070;8.436;2022-09-13T04:38:03;99484.91;;;14.93;79.24
40730;BME280;26418;50.070;8.436;2022-09-13T04:40:28;99497.59;;;15.01;79.01
40730;BME280;26418;50.070;8.436;2022-09-13T04:42:54;99493.50;;;15.07;79.91
40730;BME280;26418;50.070;8.436;2022-09-13T04:45:19;99484.91;;;15.05;79.57
40730;BME280;26418;50.070;8.436;2022-09-13T04:47:52;99498.50;;;15.18;78.83
40730;BME280;26418;50.070;8.436;2022-09-13T04:50:19;99489.88;;;15.16;78.55
40730;BME280;26418;50.070;8.436;2022-09-13T04:52:45;99502.81;;;15.19;78.30
40730;BME280;26418;50.070;8.436;2022-09-13T04:55:11;99498.41;;;15.14;78.11
40730;BME280;26418;50.070;8.436;2022-09-13T04:57:36;99496.81;;;15.13;78.22
40730;BME280;26418;50.070;8.436;2022-09-13T05:00:02;99503.50;;;15.16;78.35
40730;BME280;26418;50.070;8.436;2022-09-13T05:02:28;99520.41;;;15.21;78.26
40730;BME280;26418;50.070;8.436;2022-09-13T05:04:53;99530.53;;;15.21;78.52
40730;BME280;26418;50.070;8.436;2022-09-13T05:07:18;99517.22;;;15.19;78.33
40730;BME280;26418;50.070;8.436;2022-09-13T05:09:44;99499.41;;;15.09;78.21
40730;BME280;26418;50.070;8.436;2022-09-13T05:12:09;99512.59;;;15.20;78.23
40730;BME280;26418;50.070;8.436;2022-09-13T05:14:35;99502.81;;;15.19;78.23
40730;BME280;26418;50.070;8.436;2022-09-13T05:17:01;99500.44;;;15.17;78.15
40730;BME280;26418;50.070;8.436;2022-09-13T05:19:26;99516.00;;;15.29;78.13
40730;BME280;26418;50.070;8.436;2022-09-13T05:21:51;99520.63;;;15.41;77.83
40730;BME280;26418;50.070;8.436;2022-09-13T05:24:17;99513.13;;;15.38;77.66
40730;BME280;26418;50.070;8.436;2022-09-13T05:26:42;99504.63;;;15.39;78.02
40730;BME280;26418;50.070;8.436;2022-09-13T05:29:07;99520.16;;;15.51;78.16
40730;BME280;26418;50.070;8.436;2022-09-13T05:31:35;99532.06;;;15.59;78.20
40730;BME280;26418;50.070;8.436;2022-09-13T05:34:04;99536.25;;;15.69;77.79
40730;BME280;26418;50.070;8.436;2022-09-13T05:36:30;99537.72;;;15.66;77.55
40730;BME280;26418;50.070;8.436;2022-09-13T05:38:55;99540.91;;;15.68;77.67
40730;BME280;26418;50.070;8.436;2022-09-13T05:41:22;99525.94;;;15.62;77.22
40730;BME280;26418;50.070;8.436;2022-09-13T05:43:47;99553.06;;;15.83;77.04
40730;BME280;26418;50.070;8.436;2022-09-13T05:46:18;99550.19;;;15.80;76.98
40730;BME280;26418;50.070;8.436;2022-09-13T05:48:43;99556.44;;;15.80;77.18
40730;BME280;26418;50.070;8.436;2022-09-13T05:51:11;99552.72;;;15.85;77.23
40730;BME280;26418;50.070;8.436;2022-09-13T05:53:39;99538.59;;;15.83;77.33
40730;BME280;26418;50.070;8.436;2022-09-13T05:56:07;99547.56;;;15.96;77.59
40730;BME280;26418;50.070;8.436;2022-09-13T05:58:33;99532.38;;;15.95;77.52
40730;BME280;26418;50.070;8.436;2022-09-13T06:00:59;99553.00;;;16.08;77.26
40730;BME280;26418;50.070;8.436;2022-09-13T06:03:24;99535.56;;;16.13;77.65
40730;BME280;26418;50.070;8.436;2022-09-13T06:05:54;99552.78;;;16.29;77.42
40730;BME280;26418;50.070;8.436;2022-09-13T06:08:20;99536.16;;;16.34;76.75
40730;BME280;26418;50.070;8.436;2022-09-13T06:13:44;99527.41;;;16.57;75.52
40730;BME280;26418;50.070;8.436;2022-09-13T06:16:11;99527.69;;;16.68;75.04
40730;BME280;26418;50.070;8.436;2022-09-13T06:18:37;99512.34;;;16.63;74.62
40730;BME280;26418;50.070;8.436;2022-09-13T06:21:12;99530.84;;;16.86;74.25
40730;BME280;26418;50.070;8.436;2022-09-13T06:23:42;99519.88;;;16.99;73.77
40730;BME280;26418;50.070;8.436;2022-09-13T06:26:12;99528.75;;;17.11;73.15
40730;BME280;26418;50.070;8.436;2022-09-13T06:28:38;99524.00;;;17.24;72.71
40730;BME280;26418;50.070;8.436;2022-09-13T06:31:11;99534.34;;;17.35;71.90
40730;BME280;26418;50.070;8.436;2022-09-13T06:33:38;99540.34;;;17.40;71.29
40730;BME280;26418;50.070;8.436;2022-09-13T06:36:15;99540.50;;;17.48;71.23
40730;BME280;26418;50.070;8.436;2022-09-13T06:38:42;99532.31;;;17.48;71.13
40730;BME280;26418;50.070;8.436;2022-09-13T06:41:10;99542.75;;;17.62;70.90
40730;BME280;26418;50.070;8.436;2022-09-13T06:43:35;99538.44;;;17.60;70.66
40730;BME280;26418;50.070;8.436;2022-09-13T06:46:04;99549.59;;;17.71;70.47
40730;BME280;26418;50.070;8.436;2022-09-13T06:48:32;99558.19;;;17.70;69.98
40730;BME280;26418;50.070;8.436;2022-09-13T06:50:59;99557.81;;;17.71;69.74
40730;BME280;26418;50.070;8.436;2022-09-13T06:53:24;99544.00;;;17.64;70.04
40730;BME280;26418;50.070;8.436;2022-09-13T06:56:05;99551.13;;;17.69;70.33
40730;BME280;26418;50.070;8.436;2022-09-13T06:58:32;99545.56;;;17.65;70.34
40730;BME280;26418;50.070;8.436;2022-09-13T07:01:31;99549.47;;;17.64;68.72
40730;BME280;26418;50.070;8.436;2022-09-13T07:04:05;99553.34;;;17.63;68.42
40730;BME280;26418;50.070;8.436;2022-09-13T07:06:36;99552.56;;;17.63;68.80
40730;BME280;26418;50.070;8.436;2022-09-13T07:09:04;99559.31;;;17.69;68.88
40730;BME280;26418;50.070;8.436;2022-09-13T07:11:33;99570.00;;;17.74;68.37
40730;BME280;26418;50.070;8.436;2022-09-13T07:13:59;99563.13;;;17.64;68.58
40730;BME280;26418;50.070;8.436;2022-09-13T07:16:36;99571.00;;;17.66;68.99
40730;BME280;26418;50.070;8.436;2022-09-13T07:19:04;99563.56;;;17.66;69.19
40730;BME280;26418;50.070;8.436;2022-09-13T07:21:30;99558.91;;;17.67;68.67
40730;BME280;26418;50.070;8.436;2022-09-13T07:23:56;99552.34;;;17.71;68.99
40730;BME280;26418;50.070;8.436;2022-09-13T07:26:22;99546.09;;;17.71;69.30
40730;BME280;26418;50.070;8.436;2022-09-13T07:28:50;99543.50;;;17.78;69.10
40730;BME280;26418;50.070;8.436;2022-09-13T07:31:27;99541.50;;;17.75;69.38
40730;BME280;26418;50.070;8.436;2022-09-13T07:34:13;99542.72;;;17.78;69.39
40730;BME280;26418;50.070;8.436;2022-09-13T07:36:39;99543.50;;;17.78;69.78
40730;BME280;26418;50.070;8.436;2022-09-13T07:39:05;99538.66;;;17.71;70.00
40730;BME280;26418;50.070;8.436;2022-09-13T07:41:31;99546.25;;;17.78;70.28
40730;BME280;26418;50.070;8.436;2022-09-13T07:43:58;99539.47;;;17.72;70.00
40730;BME280;26418;50.070;8.436;2022-09-13T07:46:26;99538.19;;;17.66;70.14
40730;BME280;26418;50.070;8.436;2022-09-13T07:48:54;99528.38;;;17.65;70.38
40730;BME280;26418;50.070;8.436;2022-09-13T07:51:22;99528.09;;;17.70;70.53
40730;BME280;26418;50.070;8.436;2022-09-13T07:53:49;99514.88;;;17.72;70.89
40730;BME280;26418;50.070;8.436;2022-09-13T07:56:20;99512.13;;;17.72;70.85
40730;BME280;26418;50.070;8.436;2022-09-13T07:58:47;99519.34;;;17.80;70.79
40730;BME280;26418;50.070;8.436;2022-09-13T08:01:26;99517.88;;;17.86;70.44
40730;BME280;26418;50.070;8.436;2022-09-13T08:03:56;99514.00;;;17.87;70.01
40730;BME280;26418;50.070;8.436;2022-09-13T08:06:22;99511.78;;;17.93;70.16
40730;BME280;26418;50.070;8.436;2022-09-13T08:08:48;99510.44;;;18.03;69.80
40730;BME280;26418;50.070;8.436;2022-09-13T08:11:31;99519.34;;;18.19;69.17
40730;BME280;26418;50.070;8.436;2022-09-13T08:13:57;99514.88;;;18.31;68.08
40730;BME280;26418;50.070;8.436;2022-09-13T08:16:23;99518.19;;;18.40;67.70
40730;BME280;26418;50.070;8.436;2022-09-13T08:18:51;99529.00;;;18.56;67.31
40730;BME280;26418;50.070;8.436;2022-09-13T08:21:17;99525.59;;;18.63;67.19
40730;BME280;26418;50.070;8.436;2022-09-13T08:23:44;99526.66;;;18.78;66.66
40730;BME280;26418;50.070;8.436;2022-09-13T08:26:10;99526.97;;;18.96;66.70
40730;BME280;26418;50.070;8.436;2022-09-13T08:28:37;99537.00;;;19.11;65.99
40730;BME280;26418;50.070;8.436;2022-09-13T08:31:07;99542.72;;;19.26;64.42
40730;BME280;26418;50.070;8.436;2022-09-13T08:33:34;99547.16;;;19.34;63.49
40730;BME280;26418;50.070;8.436;2022-09-13T08:36:00;99545.28;;;19.42;63.40
40730;BME280;26418;50.070;8.436;2022-09-13T08:38:27;99543.44;;;19.50;63.37
40730;BME280;26418;50.070;8.436;2022-09-13T08:40:55;99530.56;;;19.54;62.05
40730;BME280;26418;50.070;8.436;2022-09-13T08:43:46;99538.88;;;19.61;62.96
40730;BME280;26418;50.070;8.436;2022-09-13T08:46:28;99542.47;;;19.65;63.23
40730;BME280;26418;50.070;8.436;2022-09-13T08:49:07;99544.50;;;19.68;63.14
40730;BME280;26418;50.070;8.436;2022-09-13T08:54:05;99542.59;;;19.45;63.26
40730;BME280;26418;50.070;8.436;2022-09-13T09:02:10;99543.84;;;18.98;66.69
40730;BME280;26418;50.070;8.436;2022-09-13T09:04:44;99552.84;;;18.75;67.48
40730;BME280;26418;50.070;8.436;2022-09-13T09:07:14;99542.69;;;18.56;68.39
40730;BME280;26418;50.070;8.436;2022-09-13T09:12:32;99532.75;;;18.25;70.39
40730;BME280;26418;50.070;8.436;2022-09-13T09:17:47;99538.09;;;17.98;72.64
40730;BME280;26418;50.070;8.436;2022-09-13T09:20:35;99540.28;;;17.92;73.66
40730;BME280;26418;50.070;8.436;2022-09-13T09:23:06;99536.19;;;17.82;74.41
40730;BME280;26418;50.070;8.436;2022-09-13T09:25:33;99527.84;;;17.75;74.79
40730;BME280;26418;50.070;8.436;2022-09-13T09:27:58;99531.13;;;17.84;75.53
40730;BME280;26418;50.070;8.436;2022-09-13T09:30:37;99532.00;;;17.88;75.74
40730;BME280;26418;50.070;8.436;2022-09-13T09:33:21;99530.66;;;17.98;75.29
40730;BME280;26418;50.070;8.436;2022-09-13T09:36:00;99533.59;;;18.09;75.23
40730;BME280;26418;50.070;8.436;2022-09-13T09:38:38;99525.84;;;18.11;75.52
40730;BME280;26418;50.070;8.436;2022-09-13T09:43:50;99538.00;;;18.14;75.53
40730;BME280;26418;50.070;8.436;2022-09-13T09:46:20;99528.38;;;18.00;75.17
40730;BME280;26418;50.070;8.436;2022-09-13T09:48:51;99532.63;;;17.98;75.42
40730;BME280;26418;50.070;8.436;2022-09-13T09:51:18;99533.06;;;18.00;75.69
40730;BME280;26418;50.070;8.436;2022-09-13T09:53:47;99528.28;;;17.97;75.72
40730;BME280;26418;50.070;8.436;2022-09-13T09:56:29;99523.25;;;17.99;76.27
40730;BME280;26418;50.070;8.436;2022-09-13T09:58:55;99526.53;;;17.88;76.41
40730;BME280;26418;50.070;8.436;2022-09-13T10:01:29;99528.81;;;17.86;76.85
40730;BME280;26418;50.070;8.436;2022-09-13T10:06:38;99538.19;;;17.85;77.72
40730;BME280;26418;50.070;8.436;2022-09-13T10:09:14;99539.91;;;17.94;78.04
40730;BME280;26418;50.070;8.436;2022-09-13T10:14:41;99536.06;;;18.14;77.98
40730;BME280;26418;50.070;8.436;2022-09-13T10:17:24;99549.19;;;18.25;77.48
40730;BME280;26418;50.070;8.436;2022-09-13T10:22:18;99544.41;;;18.41;77.05
40730;BME280;26418;50.070;8.436;2022-09-13T10:24:44;99541.34;;;18.46;76.91
40730;BME280;26418;50.070;8.436;2022-09-13T10:27:20;99541.25;;;18.62;76.37
40730;BME280;26418;50.070;8.436;2022-09-13T10:29:48;99537.13;;;18.72;75.61
40730;BME280;26418;50.070;8.436;2022-09-13T10:32:16;99553.38;;;18.84;73.91
40730;BME280;26418;50.070;8.436;2022-09-13T10:34:44;99548.38;;;18.67;73.34
40730;BME280;26418;50.070;8.436;2022-09-13T10:39:52;99545.38;;;18.52;73.41
40730;BME280;26418;50.070;8.436;2022-09-13T10:42:21;99561.41;;;18.74;74.08
40730;BME280;26418;50.070;8.436;2022-09-13T10:45:07;99559.69;;;18.89;74.34
40730;BME280;26418;50.070;8.436;2022-09-13T10:50:26;99548.97;;;19.26;71.95
40730;BME280;26418;50.070;8.436;2022-09-13T10:52:53;99550.91;;;19.53;72.08
40730;BME280;26418;50.070;8.436;2022-09-13T10:55:27;99545.13;;;19.85;71.24
40730;BME280;26418;50.070;8.436;2022-09-13T10:57:55;99543.91;;;20.16;70.87
40730;BME280;26418;50.070;8.436;2022-09-13T11:04:32;99544.56;;;20.78;68.02
40730;BME280;26418;50.070;8.436;2022-09-13T11:07:12;99536.50;;;20.99;66.62
40730;BME280;26418;50.070;8.436;2022-09-13T11:09:47;99523.97;;;21.02;65.11
40730;BME280;26418;50.070;8.436;2022-09-13T11:12:41;99536.53;;;21.03;64.63
40730;BME280;26418;50.070;8.436;2022-09-13T11:16:09;99529.00;;;20.96;64.71
40730;BME280;26418;50.070;8.436;2022-09-13T11:37:36;99498.59;;;20.33;67.04
40730;BME280;26418;50.070;8.436;2022-09-13T11:40:24;99497.47;;;20.38;67.01
40730;BME280;26418;50.070;8.436;2022-09-13T11:45:57;99489.09;;;20.65;67.82
40730;BME280;26418;50.070;8.436;2022-09-13T11:51:11;99495.28;;;21.03;67.61
40730;BME280;26418;50.070;8.436;2022-09-13T11:54:03;99501.31;;;21.19;66.16
40730;BME280;26418;50.070;8.436;2022-09-13T11:56:42;99481.75;;;21.32;65.94
40730;BME280;26418;50.070;8.436;2022-09-13T12:02:03;99490.56;;;21.63;64.31
40730;BME280;26418;50.070;8.436;2022-09-13T12:04:37;99474.88;;;21.74;62.64
40730;BME280;26418;50.070;8.436;2022-09-13T12:07:13;99474.53;;;21.87;63.05
40730;BME280;26418;50.070;8.436;2022-09-13T12:09:51;99472.63;;;22.05;62.72
40730;BME280;26418;50.070;8.436;2022-09-13T12:12:18;99465.56;;;22.19;60.15
40730;BME280;26418;50.070;8.436;2022-09-13T12:15:05;99480.16;;;22.37;60.23
40730;BME280;26418;50.070;8.436;2022-09-13T12:19:58;99468.81;;;22.57;59.12
40730;BME280;26418;50.070;8.436;2022-09-13T12:22:28;99463.28;;;22.53;59.00
40730;BME280;26418;50.070;8.436;2022-09-13T12:24:58;99462.47;;;22.64;59.01
40730;BME280;26418;50.070;8.436;2022-09-13T12:27:44;99459.34;;;22.76;59.35
40730;BME280;26418;50.070;8.436;2022-09-13T12:30:18;99451.06;;;22.76;58.55
40730;BME280;26418;50.070;8.436;2022-09-13T12:32:44;99455.38;;;22.91;58.20
40730;BME280;26418;50.070;8.436;2022-09-13T12:38:13;99443.97;;;22.82;58.33
40730;BME280;26418;50.070;8.436;2022-09-13T12:41:29;99449.91;;;22.70;57.88
40730;BME280;26418;50.070;8.436;2022-09-13T12:46:56;99461.31;;;22.65;58.93
40730;BME280;26418;50.070;8.436;2022-09-13T12:52:19;99457.38;;;22.69;59.07
40730;BME280;26418;50.070;8.436;2022-09-13T12:57:43;99444.78;;;22.50;57.28
40730;BME280;26418;50.070;8.436;2022-09-13T13:00:29;99451.03;;;22.36;58.13
40730;BME280;26418;50.070;8.436;2022-09-13T13:05:46;99453.03;;;22.43;58.36
40730;BME280;26418;50.070;8.436;2022-09-13T13:10:44;99451.09;;;22.61;56.42
40730;BME280;26418;50.070;8.436;2022-09-13T13:13:34;99442.78;;;22.47;56.43
40730;BME280;26418;50.070;8.436;2022-09-13T13:16:20;99448.31;;;22.47;57.40
40730;BME280;26418;50.070;8.436;2022-09-13T13:18:48;99436.50;;;22.54;57.81
40730;BME280;26418;50.070;8.436;2022-09-13T13:29:22;99429.00;;;22.90;57.62
40730;BME280;26418;50.070;8.436;2022-09-13T13:34:46;99414.00;;;23.02;56.71
40730;BME280;26418;50.070;8.436;2022-09-13T13:39:44;99414.34;;;23.15;57.20
40730;BME280;26418;50.070;8.436;2022-09-13T13:42:12;99402.53;;;23.29;56.29
40730;BME280;26418;50.070;8.436;2022-09-13T13:59:53;99399.34;;;23.31;57.64
40730;BME280;26418;50.070;8.436;2022-09-13T14:02:24;99386.38;;;23.28;57.29
40730;BME280;26418;50.070;8.436;2022-09-13T14:10:25;99387.56;;;23.23;56.42
40730;BME280;26418;50.070;8.436;2022-09-13T14:16:12;99394.66;;;23.09;57.25
40730;BME280;26418;50.070;8.436;2022-09-13T14:21:32;99389.53;;;23.12;57.68
40730;BME280;26418;50.070;8.436;2022-09-13T14:24:17;99383.25;;;23.07;57.48
40730;BME280;26418;50.070;8.436;2022-09-13T14:26:48;99389.97;;;23.03;57.85
40730;BME280;26418;50.070;8.436;2022-09-13T14:29:17;99376.97;;;23.03;58.48
40730;BME280;26418;50.070;8.436;2022-09-13T14:31:51;99386.03;;;23.04;59.05
40730;BME280;26418;50.070;8.436;2022-09-13T14:34:30;99373.78;;;23.05;59.38
40730;BME280;26418;50.070;8.436;2022-09-13T14:37:00;99375.00;;;23.04;59.37
40730;BME280;26418;50.070;8.436;2022-09-13T14:39:26;99368.69;;;23.03;59.87
40730;BME280;26418;50.070;8.436;2022-09-13T14:42:11;99365.94;;;23.00;59.76
40730;BME280;26418;50.070;8.436;2022-09-13T14:44:43;99361.22;;;22.93;60.34
40730;BME280;26418;50.070;8.436;2022-09-13T14:47:19;99367.94;;;22.88;60.91
40730;BME280;26418;50.070;8.436;2022-09-13T14:49:50;99363.25;;;22.82;61.17
40730;BME280;26418;50.070;8.436;2022-09-13T14:52:37;99354.97;;;22.82;61.03
40730;BME280;26418;50.070;8.436;2022-09-13T14:55:07;99354.56;;;22.80;60.59
40730;BME280;26418;50.070;8.436;2022-09-13T14:57:42;99355.75;;;22.79;60.89
40730;BME280;26418;50.070;8.436;2022-09-13T15:02:38;99360.09;;;22.76;61.19
40730;BME280;26418;50.070;8.436;2022-09-13T15:05:07;99347.09;;;22.76;61.21
40730;BME280;26418;50.070;8.436;2022-09-13T15:07:38;99353.00;;;22.75;60.57
40730;BME280;26418;50.070;8.436;2022-09-13T15:10:19;99345.50;;;22.75;60.81
40730;BME280;26418;50.070;8.436;2022-09-13T15:15:39;99341.19;;;22.71;61.06
40730;BME280;26418;50.070;8.436;2022-09-13T15:18:22;99338.44;;;22.64;61.53
40730;BME280;26418;50.070;8.436;2022-09-13T15:23:27;99332.19;;;22.41;62.15
40730;BME280;26418;50.070;8.436;2022-09-13T15:28:32;99318.81;;;22.14;63.30
40730;BME280;26418;50.070;8.436;2022-09-13T15:31:00;99319.19;;;22.06;63.92
40730;BME280;26418;50.070;8.436;2022-09-13T15:33:31;99323.94;;;21.94;64.56
40730;BME280;26418;50.070;8.436;2022-09-13T15:39:09;99316.84;;;21.82;64.95
40730;BME280;26418;50.070;8.436;2022-09-13T15:41:53;99313.28;;;21.78;64.95
40730;BME280;26418;50.070;8.436;2022-09-13T15:44:19;99314.06;;;21.75;65.32
40730;BME280;26418;50.070;8.436;2022-09-13T15:46:53;99307.38;;;21.73;65.55
40730;BME280;26418;50.070;8.436;2022-09-13T15:49:21;99309.34;;;21.69;65.30
40730;BME280;26418;50.070;8.436;2022-09-13T15:51:53;99305.78;;;21.68;65.61
40730;BME280;26418;50.070;8.436;2022-09-13T15:54:19;99308.94;;;21.66;65.94
40730;BME280;26418;50.070;8.436;2022-09-13T15:56:47;99303.84;;;21.65;66.21
40730;BME280;26418;50.070;8.436;2022-09-13T15:59:18;99317.97;;;21.63;66.47
40730;BME280;26418;50.070;8.436;2022-09-13T16:01:44;99309.34;;;21.61;66.36
40730;BME280;26418;50.070;8.436;2022-09-13T16:04:11;99307.72;;;21.57;66.13
40730;BME280;26418;50.070;8.436;2022-09-13T16:06:37;99298.25;;;21.50;65.95
40730;BME280;26418;50.070;8.436;2022-09-13T16:11:43;99296.66;;;21.39;66.87
40730;BME280;26418;50.070;8.436;2022-09-13T16:14:09;99284.47;;;21.32;67.32
40730;BME280;26418;50.070;8.436;2022-09-13T16:16:34;99289.97;;;21.32;67.97
40730;BME280;26418;50.070;8.436;2022-09-13T16:19:03;99282.91;;;21.28;68.31
40730;BME280;26418;50.070;8.436;2022-09-13T16:21:28;99282.88;;;21.20;68.34
40730;BME280;26418;50.070;8.436;2022-09-13T16:23:54;99284.44;;;21.14;69.20